createdAt,value
2023-07-23T00:01:10.900Z,22.34
2023-07-23T00:03:37.932Z,22.39
2023-07-23T00:06:06.231Z,22.34
2023-07-23T00:08:33.272Z,22.42
2023-07-23T00:11:00.241Z,22.38
2023-07-23T00:13:27.379Z,22.32
2023-07-23T00:15:54.654Z,22.11
2023-07-23T00:18:21.641Z,21.98
2023-07-23T00:20:48.778Z,22.07
2023-07-23T00:23:15.946Z,21.96
2023-07-23T00:25:43.531Z,21.82
2023-07-23T00:28:10.555Z,21.87
2023-07-23T00:30:37.704Z,22.03
2023-07-23T00:33:04.699Z,22.06
2023-07-23T00:35:31.740Z,22.08
2023-07-23T00:37:58.982Z,22.08
2023-07-23T00:40:26.022Z,22.12
2023-07-23T00:42:53.175Z,22.13
2023-07-23T00:45:21.112Z,22.07
2023-07-23T00:47:48.220Z,22.08
2023-07-23T00:50:16.428Z,22.08
2023-07-23T00:52:44.370Z,22.08
2023-07-23T00:55:11.388Z,21.96
2023-07-23T00:57:38.455Z,21.84
2023-07-23T01:02:59.609Z,21.84
2023-07-23T01:05:27.396Z,21.84
2023-07-23T01:07:55.076Z,21.73
2023-07-23T01:10:22.548Z,21.71
2023-07-23T01:12:50.662Z,21.60
2023-07-23T01:15:17.772Z,21.68
2023-07-23T01:17:45.816Z,21.70
2023-07-23T01:20:13.892Z,21.72
2023-07-23T01:22:40.819Z,21.68
2023-07-23T01:25:08.181Z,21.64
2023-07-23T01:27:35.465Z,21.59
2023-07-23T01:30:02.699Z,21.60
2023-07-23T01:32:29.646Z,21.34
2023-07-23T01:35:07.484Z,21.29
2023-07-23T01:37:34.374Z,21.30
2023-07-23T01:40:01.570Z,21.15
2023-07-23T01:42:28.812Z,21.11
2023-07-23T01:44:55.785Z,21.04
2023-07-23T01:47:24.177Z,20.79
2023-07-23T01:49:51.818Z,20.62
2023-07-23T01:52:18.691Z,20.61
2023-07-23T01:54:45.555Z,20.56
2023-07-23T01:57:12.383Z,20.51
2023-07-23T01:59:39.692Z,20.49
2023-07-23T02:02:10.582Z,20.71
2023-07-23T02:04:37.613Z,20.82
2023-07-23T02:07:04.866Z,20.83
2023-07-23T02:09:31.967Z,20.98
2023-07-23T02:11:58.899Z,21.06
2023-07-23T02:14:25.906Z,21.07
2023-07-23T02:16:52.723Z,20.99
2023-07-23T02:19:19.812Z,20.85
2023-07-23T02:21:46.805Z,20.74
2023-07-23T02:24:13.810Z,20.76
2023-07-23T02:26:40.695Z,20.71
2023-07-23T02:29:07.688Z,20.71
2023-07-23T02:31:34.558Z,20.70
2023-07-23T02:34:01.387Z,20.66
2023-07-23T02:36:28.341Z,20.65
2023-07-23T02:38:55.377Z,20.76
2023-07-23T02:41:22.343Z,20.75
2023-07-23T02:43:49.310Z,20.81
2023-07-23T02:46:16.349Z,20.82
2023-07-23T02:48:43.316Z,20.90
2023-07-23T02:51:10.219Z,20.88
2023-07-23T02:53:37.144Z,20.82
2023-07-23T02:56:04.136Z,20.91
2023-07-23T02:58:31.092Z,20.86
2023-07-23T03:00:58.231Z,20.96
2023-07-23T03:03:26.108Z,20.90
2023-07-23T03:05:53.144Z,20.95
2023-07-23T03:08:20.191Z,20.89
2023-07-23T03:10:47.090Z,20.93
2023-07-23T03:13:14.250Z,20.97
2023-07-23T03:15:41.052Z,21.10
2023-07-23T03:18:07.966Z,21.03
2023-07-23T03:20:35.002Z,21.04
2023-07-23T03:23:01.907Z,21.06
2023-07-23T03:25:28.733Z,21.07
2023-07-23T03:27:57.958Z,21.06
2023-07-23T03:30:24.785Z,21.03
2023-07-23T03:32:51.756Z,21.02
2023-07-23T03:35:18.708Z,21.04
2023-07-23T03:37:45.789Z,20.96
2023-07-23T03:40:12.996Z,21.02
2023-07-23T03:42:39.880Z,21.07
2023-07-23T03:45:07.458Z,21.09
2023-07-23T03:47:34.403Z,21.09
2023-07-23T03:50:01.492Z,21.05
2023-07-23T03:52:28.501Z,21.10
2023-07-23T03:54:55.393Z,21.19
2023-07-23T03:57:22.337Z,21.20
2023-07-23T03:59:49.219Z,21.28
2023-07-23T04:14:59.529Z,22.01
2023-07-23T04:17:26.479Z,21.92
2023-07-23T04:19:53.408Z,21.88
2023-07-23T04:22:20.913Z,21.81
2023-07-23T04:24:48.260Z,21.83
2023-07-23T04:27:16.061Z,21.96
2023-07-23T04:29:43.247Z,21.89
2023-07-23T04:32:10.101Z,21.98
2023-07-23T04:34:37.435Z,22.03
2023-07-23T04:37:05.064Z,22.17
2023-07-23T04:39:31.981Z,22.10
2023-07-23T04:41:59.193Z,21.88
2023-07-23T04:44:26.504Z,21.83
2023-07-23T04:46:53.339Z,21.78
2023-07-23T04:49:20.244Z,21.81
2023-07-23T04:51:47.252Z,21.91
2023-07-23T04:54:14.295Z,21.98
2023-07-23T04:56:41.355Z,22.10
2023-07-23T04:59:08.895Z,22.22
2023-07-23T05:01:36.142Z,22.29
2023-07-23T05:04:03.504Z,22.29
2023-07-23T05:06:30.572Z,22.35
2023-07-23T05:08:57.762Z,22.56
2023-07-23T05:11:25.035Z,22.64
2023-07-23T05:13:52.181Z,22.70
2023-07-23T05:16:19.171Z,22.71
2023-07-23T05:18:46.525Z,22.85
2023-07-23T05:21:13.643Z,22.80
2023-07-23T05:23:40.554Z,23.08
2023-07-23T05:26:07.478Z,23.23
2023-07-23T05:28:35.013Z,23.23
2023-07-23T05:31:02.022Z,23.12
2023-07-23T05:33:29.233Z,23.25
2023-07-23T05:35:56.433Z,23.27
2023-07-23T05:38:23.411Z,23.27
2023-07-23T05:40:58.126Z,23.40
2023-07-23T05:43:27.970Z,23.51
2023-07-23T05:45:56.682Z,23.58
2023-07-23T05:48:23.743Z,23.74
2023-07-23T05:50:50.854Z,23.82
2023-07-23T05:53:17.807Z,23.76
2023-07-23T05:55:44.623Z,23.86
2023-07-23T05:58:11.573Z,24.31
2023-07-23T06:00:38.465Z,24.52
2023-07-23T06:03:05.467Z,24.48
2023-07-23T06:05:32.442Z,24.51
2023-07-23T06:07:59.289Z,24.82
2023-07-23T06:10:26.162Z,24.85
2023-07-23T06:12:53.228Z,24.62
2023-07-23T06:15:21.779Z,24.81
2023-07-23T06:17:48.850Z,24.59
2023-07-23T06:20:15.864Z,24.73
2023-07-23T06:22:43.347Z,24.70
2023-07-23T06:25:10.639Z,24.89
2023-07-23T06:27:37.704Z,25.13
2023-07-23T06:30:04.861Z,25.45
2023-07-23T06:32:31.792Z,25.69
2023-07-23T06:34:58.772Z,25.47
2023-07-23T06:37:25.665Z,25.36
2023-07-23T06:39:52.553Z,25.43
2023-07-23T06:42:19.437Z,25.34
2023-07-23T06:44:46.348Z,25.58
2023-07-23T06:47:15.070Z,25.92
2023-07-23T06:49:41.965Z,26.26
2023-07-23T06:52:09.550Z,26.30
2023-07-23T06:54:40.031Z,26.23
2023-07-23T06:57:07.183Z,26.19
2023-07-23T06:59:34.236Z,26.02
2023-07-23T07:02:01.154Z,26.31
2023-07-23T07:04:30.411Z,26.15
2023-07-23T07:06:57.563Z,26.37
2023-07-23T07:09:24.956Z,26.69
2023-07-23T07:11:53.309Z,26.63
2023-07-23T07:14:20.206Z,26.88
2023-07-23T07:16:47.342Z,27.04
2023-07-23T07:19:14.989Z,26.94
2023-07-23T07:21:41.929Z,26.91
2023-07-23T07:24:09.003Z,27.09
2023-07-23T07:26:36.059Z,27.59
2023-07-23T07:29:04.063Z,27.94
2023-07-23T07:31:31.332Z,28.47
2023-07-23T07:33:59.432Z,28.35
2023-07-23T07:36:26.282Z,28.19
2023-07-23T07:38:53.091Z,28.45
2023-07-23T07:41:19.991Z,28.20
2023-07-23T07:43:47.038Z,28.92
2023-07-23T07:46:13.930Z,29.23
2023-07-23T07:48:40.804Z,28.70
2023-07-23T07:51:08.310Z,28.24
2023-07-23T07:53:36.651Z,28.10
2023-07-23T07:56:04.751Z,27.82
2023-07-23T07:58:32.130Z,27.64
2023-07-23T08:01:00.743Z,27.48
2023-07-23T08:03:31.065Z,27.68
2023-07-23T08:05:59.647Z,28.42
2023-07-23T08:08:29.314Z,28.41
2023-07-23T08:10:58.243Z,28.86
2023-07-23T08:13:26.031Z,28.45
2023-07-23T08:15:55.775Z,28.88
2023-07-23T08:18:23.845Z,29.17
2023-07-23T08:20:50.870Z,29.84
2023-07-23T08:23:18.019Z,29.82
2023-07-23T08:25:50.658Z,29.71
2023-07-23T08:28:26.762Z,30.21
2023-07-23T08:30:55.741Z,30.17
2023-07-23T08:33:26.594Z,30.31
2023-07-23T08:35:53.786Z,30.11
2023-07-23T08:38:20.953Z,29.59
2023-07-23T08:40:50.924Z,29.15
2023-07-23T08:43:46.665Z,29.02
2023-07-23T08:46:26.392Z,29.60
2023-07-23T08:48:55.984Z,29.81
2023-07-23T08:51:28.383Z,30.05
2023-07-23T08:53:58.067Z,29.42
2023-07-23T08:56:25.450Z,29.09
2023-07-23T08:58:53.846Z,29.80
2023-07-23T09:01:20.828Z,29.74
2023-07-23T09:03:48.387Z,29.57
2023-07-23T09:06:16.287Z,29.73
2023-07-23T09:08:43.137Z,30.06
2023-07-23T09:11:11.904Z,30.17
2023-07-23T09:13:39.163Z,30.31
2023-07-23T09:16:06.589Z,30.17
2023-07-23T09:18:39.600Z,29.81
2023-07-23T09:21:07.636Z,29.70
2023-07-23T09:23:36.634Z,30.11
2023-07-23T09:26:03.584Z,30.64
2023-07-23T09:28:30.572Z,30.28
2023-07-23T09:31:00.245Z,30.11
2023-07-23T09:33:37.942Z,30.95
2023-07-23T09:36:06.858Z,30.71
2023-07-23T09:38:35.161Z,30.79
2023-07-23T09:41:02.221Z,31.48
2023-07-23T09:43:29.607Z,31.84
2023-07-23T09:45:56.815Z,31.89
2023-07-23T09:48:24.711Z,31.85
2023-07-23T09:50:57.445Z,31.55
2023-07-23T09:53:24.365Z,31.32
2023-07-23T09:55:51.992Z,31.78
2023-07-23T09:58:21.865Z,31.97
2023-07-23T10:00:51.176Z,32.40
2023-07-23T10:03:18.979Z,32.84
2023-07-23T10:05:46.910Z,32.54
2023-07-23T10:08:15.601Z,32.57
2023-07-23T10:10:43.097Z,32.47
2023-07-23T10:13:10.031Z,32.41
2023-07-23T10:15:39.869Z,31.80
2023-07-23T10:18:08.325Z,32.15
2023-07-23T10:20:35.658Z,32.23
2023-07-23T10:23:06.745Z,32.13
2023-07-23T10:25:40.499Z,31.71
2023-07-23T10:28:11.758Z,31.74
2023-07-23T10:30:39.077Z,32.21
2023-07-23T10:33:26.334Z,32.37
2023-07-23T10:35:53.294Z,32.58
2023-07-23T10:38:25.237Z,32.33
2023-07-23T10:40:52.450Z,32.16
2023-07-23T10:43:19.663Z,32.03
2023-07-23T10:45:52.838Z,31.98
2023-07-23T10:48:19.990Z,31.85
2023-07-23T10:51:11.838Z,31.65
2023-07-23T10:54:04.199Z,32.15
2023-07-23T10:56:40.592Z,32.13
2023-07-23T10:59:22.979Z,32.30
2023-07-23T11:01:53.019Z,32.31
2023-07-23T11:04:26.649Z,32.16
2023-07-23T11:07:01.950Z,32.16
2023-07-23T11:09:32.689Z,32.38
2023-07-23T11:12:01.067Z,32.04
2023-07-23T11:14:29.690Z,31.85
2023-07-23T11:17:02.616Z,31.34
2023-07-23T11:19:31.094Z,31.23
2023-07-23T11:22:00.621Z,29.83
2023-07-23T11:24:29.921Z,30.95
2023-07-23T11:27:04.064Z,31.03
2023-07-23T11:29:35.003Z,31.01
2023-07-23T11:32:03.788Z,30.59
2023-07-23T11:34:35.854Z,30.55
2023-07-23T11:37:04.062Z,30.56
2023-07-23T11:39:30.971Z,30.35
2023-07-23T11:41:57.942Z,30.46
2023-07-23T11:44:24.956Z,30.37
2023-07-23T11:47:02.991Z,30.21
2023-07-23T11:49:30.265Z,30.20
2023-07-23T11:51:59.944Z,30.23
2023-07-23T11:54:26.875Z,30.30
2023-07-23T11:56:53.710Z,30.74
2023-07-23T11:59:20.612Z,30.57
2023-07-23T12:04:39.382Z,30.41
2023-07-23T12:07:10.270Z,30.55
2023-07-23T12:09:37.203Z,30.86
2023-07-23T12:12:04.522Z,30.90
2023-07-23T12:14:31.507Z,30.95
2023-07-23T12:16:58.871Z,30.76
2023-07-23T12:19:25.834Z,30.50
2023-07-23T12:21:55.154Z,30.68
2023-07-23T12:24:30.224Z,30.55
2023-07-23T12:26:58.862Z,30.91
2023-07-23T12:29:27.649Z,30.72
2023-07-23T12:32:15.079Z,30.30
2023-07-23T12:34:49.083Z,30.11
2023-07-23T12:37:17.655Z,30.35
2023-07-23T12:39:48.190Z,30.13
2023-07-23T12:42:15.700Z,30.35
2023-07-23T12:44:42.786Z,30.36
2023-07-23T12:47:09.962Z,30.67
2023-07-23T12:49:36.858Z,30.64
2023-07-23T12:52:04.730Z,30.80
2023-07-23T12:54:31.797Z,30.98
2023-07-23T12:56:58.931Z,31.26
2023-07-23T12:59:26.436Z,31.12
2023-07-23T13:01:53.503Z,31.30
2023-07-23T13:04:20.647Z,31.16
2023-07-23T13:06:49.885Z,30.97
2023-07-23T13:09:18.251Z,30.53
2023-07-23T13:11:45.288Z,30.70
2023-07-23T13:14:12.198Z,30.40
2023-07-23T13:16:39.312Z,30.14
2023-07-23T13:19:06.185Z,30.20
2023-07-23T13:21:33.402Z,30.72
2023-07-23T13:24:00.282Z,30.63
2023-07-23T13:26:27.509Z,30.67
2023-07-23T13:28:54.777Z,30.32
2023-07-23T13:31:21.807Z,30.45
2023-07-23T13:33:48.722Z,30.58
2023-07-23T13:36:16.485Z,30.91
2023-07-23T13:38:43.406Z,30.95
2023-07-23T13:41:10.390Z,30.81
2023-07-23T13:43:37.443Z,30.99
2023-07-23T13:46:04.274Z,30.98
2023-07-23T13:48:31.343Z,30.64
2023-07-23T13:50:58.321Z,30.74
2023-07-23T13:53:25.176Z,31.03
2023-07-23T13:55:52.671Z,30.71
2023-07-23T13:58:19.756Z,30.99
2023-07-23T14:00:46.933Z,31.09
2023-07-23T14:03:14.193Z,31.13
2023-07-23T14:05:41.219Z,30.85
2023-07-23T14:08:08.120Z,30.75
2023-07-23T14:10:36.651Z,30.77
2023-07-23T14:13:04.187Z,30.82
2023-07-23T14:15:31.301Z,30.86
2023-07-23T14:18:00.976Z,31.07
2023-07-23T14:20:28.418Z,30.99
2023-07-23T14:22:55.757Z,30.77
2023-07-23T14:25:23.455Z,30.37
2023-07-23T14:27:50.923Z,30.42
2023-07-23T14:30:21.497Z,30.54
2023-07-23T14:32:48.528Z,30.56
2023-07-23T14:35:15.759Z,30.08
2023-07-23T14:37:42.648Z,30.12
2023-07-23T14:40:10.241Z,30.18
2023-07-23T14:42:37.224Z,30.17
2023-07-23T14:45:06.798Z,30.06
2023-07-23T14:47:33.734Z,30.32
2023-07-23T14:50:00.813Z,30.05
2023-07-23T14:52:27.734Z,30.27
2023-07-23T14:54:54.683Z,30.33
2023-07-23T14:57:21.584Z,30.20
2023-07-23T14:59:48.425Z,29.92
2023-07-23T15:02:15.367Z,30.19
2023-07-23T15:04:42.461Z,30.08
2023-07-23T15:07:09.795Z,29.96
2023-07-23T15:09:36.623Z,29.90
2023-07-23T15:12:03.908Z,29.26
2023-07-23T15:14:31.174Z,29.82
2023-07-23T15:16:58.520Z,29.89
2023-07-23T15:19:25.773Z,29.86
2023-07-23T15:21:52.988Z,29.93
2023-07-23T15:24:20.197Z,30.02
2023-07-23T15:26:48.906Z,29.54
2023-07-23T15:29:16.816Z,29.42
2023-07-23T15:31:43.802Z,29.30
2023-07-23T15:34:10.752Z,29.45
2023-07-23T15:36:37.599Z,29.18
2023-07-23T15:39:04.484Z,29.54
2023-07-23T15:41:31.726Z,29.60
2023-07-23T15:43:58.727Z,29.61
2023-07-23T15:46:25.893Z,29.58
2023-07-23T15:48:52.945Z,29.62
2023-07-23T15:51:19.993Z,29.44
2023-07-23T15:53:46.845Z,29.29
2023-07-23T15:56:13.769Z,29.34
2023-07-23T15:58:40.760Z,29.42
2023-07-23T16:01:07.655Z,29.38
2023-07-23T16:03:35.362Z,29.44
2023-07-23T16:06:02.434Z,29.32
2023-07-23T16:08:29.444Z,29.34
2023-07-23T16:10:56.486Z,29.32
2023-07-23T16:13:23.541Z,29.27
2023-07-23T16:15:51.234Z,29.25
2023-07-23T16:18:18.181Z,29.28
2023-07-23T16:20:45.552Z,29.08
2023-07-23T16:23:12.545Z,29.03
2023-07-23T16:25:44.562Z,29.01
2023-07-23T16:28:15.680Z,28.96
2023-07-23T16:30:42.834Z,28.86
2023-07-23T16:33:10.384Z,28.89
2023-07-23T16:35:38.202Z,28.71
2023-07-23T16:38:12.895Z,28.72
2023-07-23T16:40:47.584Z,28.69
2023-07-23T16:43:19.491Z,28.71
2023-07-23T16:45:49.851Z,28.64
2023-07-23T16:48:16.878Z,28.53
2023-07-23T16:50:43.890Z,28.57
2023-07-23T16:53:12.263Z,28.14
2023-07-23T16:55:39.264Z,28.26
2023-07-23T16:58:07.749Z,28.22
2023-07-23T17:00:34.580Z,28.02
2023-07-23T17:03:01.552Z,28.08
2023-07-23T17:05:28.758Z,28.04
2023-07-23T17:07:55.639Z,28.06
2023-07-23T17:10:22.640Z,27.82
2023-07-23T17:12:49.530Z,27.75
2023-07-23T17:15:16.438Z,27.81
2023-07-23T17:17:43.390Z,27.70
2023-07-23T17:20:10.647Z,27.71
2023-07-23T17:22:37.512Z,27.66
2023-07-23T17:25:04.750Z,27.54
2023-07-23T17:27:31.701Z,27.47
2023-07-23T17:29:58.559Z,27.42
2023-07-23T17:32:26.311Z,27.36
2023-07-23T17:34:53.728Z,27.32
2023-07-23T17:37:20.969Z,27.26
2023-07-23T17:39:47.892Z,27.23
2023-07-23T17:42:14.980Z,27.22
2023-07-23T17:44:41.924Z,27.12
2023-07-23T17:47:09.273Z,27.11
2023-07-23T17:49:36.310Z,27.04
2023-07-23T17:52:03.404Z,26.97
2023-07-23T17:54:31.263Z,26.96
2023-07-23T17:57:01.537Z,26.95
2023-07-23T17:59:28.561Z,26.91
2023-07-23T18:01:56.040Z,26.89
2023-07-23T18:04:23.125Z,26.79
2023-07-23T18:06:49.973Z,26.75
2023-07-23T18:09:17.580Z,26.69
2023-07-23T18:11:44.544Z,26.63
2023-07-23T18:14:11.634Z,26.57
2023-07-23T18:16:38.704Z,26.63
2023-07-23T18:19:05.872Z,26.57
2023-07-23T18:21:32.884Z,26.45
2023-07-23T18:23:59.782Z,26.43
2023-07-23T18:26:27.151Z,26.42
2023-07-23T18:28:54.888Z,26.35
2023-07-23T18:31:32.996Z,26.35
2023-07-23T18:34:01.980Z,26.26
2023-07-23T18:36:29.220Z,26.22
2023-07-23T18:38:56.349Z,26.23
2023-07-23T18:41:30.461Z,26.22
2023-07-23T18:43:57.507Z,26.11
2023-07-23T18:46:24.848Z,26.11
2023-07-23T18:48:53.346Z,26.01
2023-07-23T18:51:21.196Z,26.03
2023-07-23T18:53:48.450Z,25.95
2023-07-23T18:56:15.808Z,25.91
2023-07-23T18:58:43.019Z,25.81
2023-07-23T19:01:10.003Z,25.73
2023-07-23T19:03:39.143Z,25.65
2023-07-23T19:06:12.871Z,25.62
2023-07-23T19:08:40.522Z,25.59
2023-07-23T19:11:08.068Z,25.57
2023-07-23T19:13:34.984Z,25.51
2023-07-23T19:16:02.172Z,25.34
2023-07-23T19:18:29.240Z,25.37
2023-07-23T19:20:56.416Z,25.22
2023-07-23T19:23:23.415Z,25.20
2023-07-23T19:25:50.555Z,25.15
2023-07-23T19:28:17.421Z,25.14
2023-07-23T19:30:45.305Z,25.15
2023-07-23T19:33:12.359Z,25.13
2023-07-23T19:35:39.430Z,25.20
2023-07-23T19:38:07.149Z,24.95
2023-07-23T19:40:34.085Z,25.00
2023-07-23T19:43:01.185Z,24.91
2023-07-23T19:45:28.371Z,24.94
2023-07-23T19:47:55.590Z,24.87
2023-07-23T19:50:23.436Z,24.93
2023-07-23T19:52:50.529Z,24.94
2023-07-23T19:55:17.999Z,24.78
2023-07-23T19:57:44.885Z,24.75
2023-07-23T20:04:32.628Z,24.72
2023-07-23T20:06:59.760Z,24.68
2023-07-23T20:09:26.610Z,24.51
2023-07-23T20:11:53.838Z,24.33
2023-07-23T20:14:20.716Z,24.39
2023-07-23T20:16:48.081Z,24.40
2023-07-23T20:19:15.107Z,24.32
2023-07-23T20:21:44.897Z,24.41
2023-07-23T20:24:16.199Z,24.30
2023-07-23T20:26:43.729Z,24.36
2023-07-23T20:29:10.955Z,24.37
2023-07-23T20:31:38.209Z,24.35
2023-07-23T20:34:06.348Z,24.29
2023-07-23T20:36:34.236Z,24.25
2023-07-23T20:39:03.768Z,24.18
2023-07-23T20:41:32.090Z,24.11
2023-07-23T20:43:59.209Z,24.10
2023-07-23T20:46:30.816Z,24.09
2023-07-23T20:48:58.077Z,24.04
2023-07-23T20:51:25.280Z,23.99
2023-07-23T20:53:52.131Z,23.97
2023-07-23T20:56:19.744Z,23.93
2023-07-23T20:58:46.618Z,23.86
2023-07-23T21:01:13.690Z,23.84
2023-07-23T21:03:40.706Z,23.81
2023-07-23T21:06:07.795Z,23.80
2023-07-23T21:08:34.662Z,23.76
2023-07-23T21:11:01.610Z,23.77
2023-07-23T21:13:28.730Z,23.69
2023-07-23T21:15:59.512Z,23.61
2023-07-23T21:18:26.556Z,23.68
2023-07-23T21:20:53.683Z,23.48
2023-07-23T21:23:20.691Z,23.52
2023-07-23T21:25:47.730Z,23.49
2023-07-23T21:28:14.776Z,23.48
2023-07-23T21:30:45.018Z,23.48
2023-07-23T21:33:12.366Z,23.40
2023-07-23T21:35:41.482Z,23.29
2023-07-23T21:38:10.292Z,23.34
2023-07-23T21:40:37.773Z,23.32
2023-07-23T21:43:04.838Z,23.30
2023-07-23T21:45:31.844Z,23.25
2023-07-23T21:48:00.658Z,23.28
2023-07-23T21:50:27.632Z,23.13
2023-07-23T21:52:55.385Z,23.16
2023-07-23T21:55:22.422Z,23.18
2023-07-23T21:57:49.432Z,23.11
2023-07-23T22:00:16.375Z,23.20
2023-07-23T22:02:43.517Z,23.23
2023-07-23T22:05:11.120Z,23.23
2023-07-23T22:07:38.570Z,23.22
2023-07-23T22:10:08.247Z,23.25
2023-07-23T22:12:36.009Z,23.22
2023-07-23T22:15:03.567Z,23.22
2023-07-23T22:17:30.932Z,23.21
2023-07-23T22:19:58.030Z,23.20
2023-07-23T22:22:25.030Z,23.13
2023-07-23T22:24:51.985Z,23.15
2023-07-23T22:27:18.974Z,23.12
2023-07-23T22:29:45.859Z,23.18
2023-07-23T22:32:13.072Z,23.11
2023-07-23T22:34:40.024Z,23.06
2023-07-23T22:37:07.074Z,23.09
2023-07-23T22:39:34.134Z,23.11
2023-07-23T22:42:01.122Z,23.07
2023-07-23T22:44:28.387Z,23.01
2023-07-23T22:46:55.610Z,23.02
2023-07-23T22:49:22.547Z,23.02
2023-07-23T22:51:49.463Z,23.07
2023-07-23T22:54:17.673Z,23.02
2023-07-23T22:56:44.918Z,22.72
2023-07-23T22:59:12.080Z,22.82
2023-07-23T23:01:39.177Z,22.72
2023-07-23T23:04:06.320Z,22.74
2023-07-23T23:06:34.445Z,22.39
2023-07-23T23:09:01.766Z,22.09
2023-07-23T23:11:29.235Z,21.76
2023-07-23T23:13:56.162Z,21.80
2023-07-23T23:16:23.224Z,21.94
2023-07-23T23:18:50.223Z,22.08
2023-07-23T23:21:17.196Z,22.18
2023-07-23T23:23:44.266Z,22.24
2023-07-23T23:26:11.315Z,22.33
2023-07-23T23:28:38.377Z,22.28
2023-07-23T23:31:05.963Z,22.19
2023-07-23T23:33:33.134Z,22.23
2023-07-23T23:36:00.500Z,22.26
2023-07-23T23:38:28.005Z,22.35
2023-07-23T23:40:55.762Z,22.42
2023-07-23T23:43:23.370Z,22.49
2023-07-23T23:45:51.075Z,22.51
2023-07-23T23:48:18.390Z,22.52
2023-07-23T23:50:45.642Z,22.53
2023-07-23T23:53:14.501Z,22.53
2023-07-23T23:55:41.550Z,22.62
2023-07-23T23:58:08.777Z,22.63
